Time;durP1;ratioP1;P1;durP2;ratioP2;P2;SDS_P1;SDS_P2;PMS_P1;PMS_P2;Temp;Humidity;BMP_temperature;BMP_pressure;BME280_temperature;BME280_humidity;BME280_pressure;Samples;Min_cycle;Max_cycle;Signal;HPM_P1;HPM_P2
2023/05/04 00:02:07;;;;;;;28.13;17.38;;;;;;;11.17;90.09;97893.81;10368884;28;20064;-52
2023/05/04 00:07:06;;;;;;;16.95;12.63;;;;;;;10.70;90.76;97887.72;10368500;28;20108;-52
2023/05/04 00:12:06;;;;;;;;;;;;;;;10.67;90.85;97884.28;10368960;28;20470;-52
2023/05/04 00:17:06;;;;;;;16.33;12.70;;;;;;;10.73;90.81;97890.34;10367737;28;19964;-51
2023/05/04 00:22:05;;;;;;;14.52;11.10;;;;;;;10.62;91.15;97885.13;10368948;28;20071;-52
2023/05/04 00:27:04;;;;;;;;;;;;;;;10.63;91.53;97880.81;10368255;28;20509;-51
2023/05/04 00:32:03;;;;;;;15.23;11.57;;;;;;;10.77;91.00;97886.00;10367446;28;20383;-52
2023/05/04 00:37:02;;;;;;;19.75;13.52;;;;;;;10.82;90.91;97881.66;10367498;28;20060;-52
2023/05/04 00:42:02;;;;;;;22.67;15.85;;;;;;;10.66;91.40;97859.16;10367409;28;20029;-51
2023/05/04 00:47:02;;;;;;;23.92;16.30;;;;;;;10.74;90.90;97883.41;10365343;28;20063;-52
2023/05/04 00:52:03;;;;;;;24.00;15.95;;;;;;;10.67;91.61;97879.09;10363027;28;20079;-52
2023/05/04 00:57:02;;;;;;;18.23;13.60;;;;;;;10.79;91.33;97876.47;10363210;28;20149;-52
2023/05/04 01:02:01;;;;;;;15.27;10.50;;;;;;;10.77;91.05;97867.84;10363408;28;20064;-51
2023/05/04 01:07:10;;;;;;;15.07;10.95;;;;;;;10.81;91.54;97862.63;10362891;28;20578;-53
2023/05/04 01:12:28;;;;;;;;;;;;;;;10.95;90.62;97869.59;10363433;28;20075;-52
2023/05/04 01:17:27;;;;;;;18.65;12.98;;;;;;;10.95;90.74;97867.88;10362012;28;20019;-52
2023/05/04 01:22:26;;;;;;;19.33;13.82;;;;;;;10.99;90.93;97871.34;10362092;28;20029;-52
2023/05/04 01:27:26;;;;;;;;;;;;;;;11.08;90.86;97870.44;10362468;28;20060;-52
2023/05/04 01:32:28;;;;;;;22.02;16.13;;;;;;;11.13;91.29;97868.72;10362306;28;20000;-52
2023/05/04 01:37:27;;;;;;;22.10;15.15;;;;;;;11.19;90.68;97856.56;10361435;28;20152;-52
2023/05/04 01:42:26;;;;;;;22.17;14.98;;;;;;;10.92;90.75;97813.34;10361370;28;20501;-52
2023/05/04 01:47:25;;;;;;;21.88;14.88;;;;;;;11.00;89.88;97834.97;10361984;28;20510;-51
2023/05/04 01:52:24;;;;;;;;;;;;;;;10.94;90.30;97842.78;10361700;28;21193;-52
2023/05/04 01:57:23;;;;;;;37.63;20.20;;;;;;;11.03;89.86;97853.16;10361618;28;19924;-52
2023/05/04 02:02:22;;;;;;;53.80;24.58;;;;;;;10.97;90.84;97842.75;10360844;28;20048;-52
2023/05/04 02:07:21;;;;;;;44.03;22.65;;;;;;;10.88;92.21;97845.38;10361106;28;20096;-52
2023/05/04 02:12:20;;;;;;;45.15;23.88;;;;;;;10.90;92.23;97837.59;10361443;28;20124;-52
2023/05/04 02:17:19;;;;;;;38.92;23.48;;;;;;;10.89;91.26;97843.63;10360530;28;20033;-52
2023/05/04 02:22:18;;;;;;;42.90;24.48;;;;;;;10.96;91.38;97838.44;10359557;28;20025;-52
2023/05/04 02:27:16;;;;;;;47.08;27.35;;;;;;;11.02;92.30;97835.81;10360917;28;20029;-53
2023/05/04 02:32:15;;;;;;;50.55;27.95;;;;;;;10.59;91.58;97763.19;10359974;28;20384;-52
2023/05/04 02:37:15;;;;;;;49.72;25.50;;;;;;;11.09;91.64;97846.22;10361437;28;20072;-52
2023/05/04 02:42:14;;;;;;;55.78;25.55;;;;;;;11.13;92.19;97834.97;10360670;28;20473;-51
2023/05/04 02:47:13;;;;;;;60.83;26.23;;;;;;;11.14;91.89;97837.53;10359444;28;20319;-52
2023/05/04 02:52:12;;;;;;;61.80;28.20;;;;;;;11.08;92.63;97844.47;10360504;28;20032;-52
2023/05/04 02:57:11;;;;;;;56.50;26.30;;;;;;;10.96;94.16;97850.53;10359804;28;20146;-52
2023/05/04 03:02:10;;;;;;;43.35;22.30;;;;;;;10.74;94.27;97845.34;10360340;28;20560;-52
2023/05/04 03:07:09;;;;;;;;;;;;;;;10.73;94.73;97858.31;10359996;28;20415;-52
2023/05/04 03:12:07;;;;;;;36.78;21.13;;;;;;;10.66;94.65;97854.88;10358468;28;20219;-52
2023/05/04 03:17:07;;;;;;;44.00;21.75;;;;;;;10.45;95.91;97860.91;10359103;28;20115;-52
2023/05/04 03:22:06;;;;;;;;;;;;;;;10.26;96.93;97867.81;10359947;28;20462;-52
2023/05/04 03:27:04;;;;;;;28.00;16.73;;;;;;;10.15;96.45;97869.50;10359175;28;20434;-52
2023/05/04 03:32:04;;;;;;;30.88;19.95;;;;;;;10.23;96.41;97872.09;10361714;28;20410;-52
2023/05/04 03:37:03;;;;;;;44.15;24.75;;;;;;;10.06;96.85;97834.03;10366665;28;20080;-52
2023/05/04 03:42:03;;;;;;;45.35;24.25;;;;;;;9.90;96.59;97795.97;10366159;28;20032;-53
2023/05/04 03:47:02;;;;;;;30.88;19.38;;;;;;;9.47;96.28;97744.03;10365359;28;20075;-53
2023/05/04 03:52:01;;;;;;;29.10;17.67;;;;;;;10.19;96.65;97891.97;10365763;28;20029;-52
2023/05/04 03:57:01;;;;;;;27.13;18.10;;;;;;;10.16;96.93;97895.41;10366226;28;20473;-52
2023/05/04 04:02:00;;;;;;;25.48;18.45;;;;;;;10.36;96.50;97905.00;10364919;28;20076;-52
2023/05/04 04:06:59;;;;;;;;;;;;;;;10.51;95.93;97899.81;10365812;28;20120;-52
2023/05/04 04:11:57;;;;;;;25.73;17.50;;;;;;;10.61;95.63;97906.78;10302658;28;19927;-52
2023/05/04 04:16:56;;;;;;;23.98;17.88;;;;;;;10.84;95.16;97913.69;10364487;28;20465;-52
2023/05/04 04:21:58;;;;;;;23.17;17.10;;;;;;;10.97;94.93;97905.09;10364049;28;20025;-52
2023/05/04 04:26:57;;;;;;;27.05;18.70;;;;;;;11.05;94.03;97918.06;10363731;28;20052;-50
2023/05/04 04:31:56;;;;;;;32.65;19.98;;;;;;;11.04;93.84;97906.81;10266797;28;20041;-53
2023/05/04 04:36:55;;;;;;;31.95;20.08;;;;;;;11.28;93.44;97924.97;10364514;28;20035;-52
2023/05/04 04:41:54;;;;;;;;;;;;;;;11.48;93.39;97919.72;10363589;28;20127;-50
2023/05/04 04:46:53;;;;;;;24.92;17.00;;;;;;;11.65;93.09;97917.97;10365153;28;19913;-52
2023/05/04 04:51:52;;;;;;;54.03;34.30;;;;;;;11.80;91.06;97919.66;10367063;28;20048;-51
2023/05/04 04:56:51;;;;;;;42.13;27.15;;;;;;;11.92;91.51;97916.16;10366227;28;20164;-51
2023/05/04 05:01:50;;;;;;;25.90;14.05;;;;;;;12.09;89.52;97911.75;10366144;28;20104;-51
2023/05/04 05:06:50;;;;;;;32.75;17.63;;;;;;;11.91;89.00;97891.88;10367207;28;20033;-51
2023/05/04 05:11:49;;;;;;;52.83;19.05;;;;;;;12.05;88.74;97917.84;10366309;28;20126;-52
2023/05/04 05:16:48;;;;;;;44.95;24.58;;;;;;;11.93;89.62;97920.50;10365481;28;20016;-49
2023/05/04 05:21:48;;;;;;;31.23;21.67;;;;;;;11.79;90.04;97933.53;10366250;28;20080;-51
2023/05/04 05:26:47;;;;;;;26.65;18.00;;;;;;;11.56;91.75;97931.84;10365045;28;20064;-52
2023/05/04 05:31:46;;;;;;;29.67;19.33;;;;;;;11.39;92.12;97941.41;10364490;28;20095;-52
2023/05/04 05:36:45;;;;;;;28.42;19.50;;;;;;;11.34;92.63;97945.72;10366198;28;20041;-52
2023/05/04 05:41:44;;;;;;;25.85;17.95;;;;;;;11.44;92.59;97952.66;10364146;28;20032;-52
2023/05/04 05:46:42;;;;;;;;;;;;;;;11.48;92.38;97958.72;10364174;28;20061;-51
2023/05/04 05:51:41;;;;;;;35.03;22.65;;;;;;;11.54;92.27;97969.13;10361447;28;19921;-51
2023/05/04 05:56:40;;;;;;;32.28;22.58;;;;;;;11.42;92.70;97965.66;10360094;28;20477;-51
2023/05/04 06:01:39;;;;;;;31.35;22.77;;;;;;;11.38;92.98;97963.91;10359077;28;20123;-51
2023/05/04 06:06:38;;;;;;;31.02;21.58;;;;;;;11.25;93.08;97931.03;10361300;28;20514;-52
2023/05/04 06:11:37;;;;;;;;;;;;;;;11.60;92.70;97976.91;10362826;28;20032;-52
2023/05/04 06:16:36;;;;;;;29.95;21.23;;;;;;;11.74;92.66;97988.16;10360119;28;20021;-52
2023/05/04 06:21:35;;;;;;;;;;;;;;;11.89;92.33;97982.03;10360424;28;20021;-50
2023/05/04 06:26:33;;;;;;;30.75;20.80;;;;;;;12.02;92.73;97977.69;10366084;28;19912;-52
2023/05/04 06:31:32;;;;;;;30.55;21.75;;;;;;;12.09;92.68;97964.63;10362961;28;20471;-52
2023/05/04 06:36:31;;;;;;;29.55;21.48;;;;;;;12.29;92.79;97974.97;10364098;28;20191;-53
2023/05/04 06:41:30;;;;;;;;;;;;;;;12.54;92.32;97987.91;10364591;28;20052;-53
2023/05/04 06:46:29;;;;;;;30.63;21.92;;;;;;;12.59;90.82;97970.50;10363410;28;19913;-52
2023/05/04 06:51:28;;;;;;;;;;;;;;;12.78;90.52;97983.41;10364659;28;20112;-52
2023/05/04 06:56:27;;;;;;;28.13;22.43;;;;;;;12.82;91.07;97988.59;10362905;28;19963;-53
2023/05/04 07:01:26;;;;;;;;;;;;;;;12.95;91.48;97984.16;10363219;28;20025;-53
2023/05/04 07:06:26;;;;;;;34.45;23.77;;;;;;;12.88;90.56;97965.13;10364313;28;20299;-53
2023/05/04 07:11:25;;;;;;;29.48;23.10;;;;;;;13.01;88.92;97981.53;10365877;28;20119;-52
2023/05/04 07:16:25;;;;;;;35.65;27.70;;;;;;;12.97;88.42;97974.59;10367590;28;20055;-52
2023/05/04 07:21:24;;;;;;;33.20;25.00;;;;;;;13.00;88.08;97981.53;10368112;28;20649;-52
2023/05/04 07:26:24;;;;;;;38.67;27.95;;;;;;;13.01;88.05;97989.34;10367320;28;20966;-53
2023/05/04 07:31:22;;;;;;;;;;;;;;;12.93;87.47;97989.41;10367921;28;20661;-52
2023/05/04 07:36:23;;;;;;;31.70;24.10;;;;;;;12.59;87.85;97996.53;10364013;28;20600;-52
2023/05/04 07:41:22;;;;;;;25.92;20.35;;;;;;;12.34;90.47;97979.31;10369918;28;20124;-52
2023/05/04 07:46:21;;;;;;;;;;;;;;;12.28;92.04;97998.44;10370420;28;20116;-52
2023/05/04 07:51:20;;;;;;;29.05;23.25;;;;;;;12.07;92.71;98007.13;10368829;28;20003;-52
2023/05/04 07:56:19;;;;;;;24.77;18.17;;;;;;;11.99;92.27;98008.88;10370923;28;20911;-52
2023/05/04 08:01:18;;;;;;;27.80;22.65;;;;;;;11.68;92.04;97998.53;10368622;28;20128;-53
2023/05/04 08:06:17;;;;;;;22.65;15.25;;;;;;;12.08;92.37;98022.72;10368170;28;20072;-52
2023/05/04 08:11:16;;;;;;;17.42;12.70;;;;;;;12.20;91.56;98023.56;10363044;28;20029;-53
2023/05/04 08:16:15;;;;;;;15.20;12.32;;;;;;;12.17;92.01;98027.03;10363518;28;20144;-53
2023/05/04 08:21:14;;;;;;;;;;;;;;;12.21;91.14;98031.38;10363681;28;20044;-52
2023/05/04 08:26:13;;;;;;;21.90;18.02;;;;;;;12.15;91.24;98035.72;10362247;28;20433;-52
2023/05/04 08:31:12;;;;;;;21.27;16.67;;;;;;;12.04;91.11;98020.13;10362075;28;20079;-52
2023/05/04 08:36:11;;;;;;;15.20;12.05;;;;;;;12.03;91.42;98032.28;10364264;28;20037;-52
2023/05/04 08:41:10;;;;;;;;;;;;;;;11.95;91.68;98038.38;10364194;28;20475;-52
2023/05/04 08:46:10;;;;;;;15.52;10.50;;;;;;;11.93;92.03;98029.72;10364113;28;20417;-53
2023/05/04 08:51:10;;;;;;;15.30;11.05;;;;;;;11.99;92.13;98040.94;10364809;28;20187;-52
2023/05/04 08:56:12;;;;;;;12.63;9.60;;;;;;;12.05;91.41;98050.50;10362909;28;20156;-52
2023/05/04 09:01:11;;;;;;;11.88;9.00;;;;;;;12.15;91.35;98043.53;10360222;28;20136;-52
2023/05/04 09:06:12;;;;;;;12.32;9.25;;;;;;;11.96;90.95;98045.31;10362685;28;20068;-52
2023/05/04 09:11:11;;;;;;;13.35;10.48;;;;;;;11.92;90.87;98034.03;10366781;28;20524;-51
2023/05/04 09:16:10;;;;;;;;;;;;;;;12.06;91.45;98050.50;10360242;28;20558;-52
2023/05/04 09:21:09;;;;;;;30.00;24.63;;;;;;;11.56;90.43;97981.22;10361528;28;19916;-52
2023/05/04 09:26:09;;;;;;;19.05;14.52;;;;;;;11.80;90.51;98045.31;10361973;28;20115;-51
2023/05/04 09:31:08;;;;;;;;;;;;;;;11.99;89.98;98060.91;10362975;28;20120;-52
2023/05/04 09:36:20;;;;;;;18.70;13.82;;;;;;;11.85;89.91;98063.50;10364757;28;19920;-52
2023/05/04 09:41:30;;;;;;;17.02;12.52;;;;;;;11.88;90.17;98043.59;10365879;28;20120;-52
2023/05/04 09:46:29;;;;;;;17.45;14.27;;;;;;;11.88;90.80;98061.78;10367882;28;20079;-52
2023/05/04 09:51:29;;;;;;;18.67;13.50;;;;;;;11.72;90.90;98062.69;10362889;28;20095;-52
2023/05/04 09:56:40;;;;;;;17.65;13.55;;;;;;;11.81;90.13;98070.47;10364016;28;20061;-52
2023/05/04 10:01:39;;;;;;;16.98;12.57;;;;;;;11.85;89.37;98064.41;10363179;28;20112;-52
2023/05/04 10:06:39;;;;;;;20.00;13.98;;;;;;;11.98;89.38;98059.19;10361426;28;20065;-52
2023/05/04 10:11:38;;;;;;;;;;;;;;;11.65;88.80;98071.34;10365390;28;20064;-52
2023/05/04 10:16:49;;;;;;;13.93;10.68;;;;;;;11.40;90.60;98066.13;10370029;28;19962;-52
2023/05/04 10:21:48;;;;;;;15.23;12.65;;;;;;;11.47;90.32;98061.81;10367604;28;20540;-52
2023/05/04 10:27:20;;;;;;;16.63;12.45;;;;;;;10.13;90.14;97817.63;10365901;28;20127;-52
2023/05/04 10:32:20;;;;;;;13.60;11.07;;;;;;;11.80;89.31;98066.13;10362685;28;20486;-52
2023/05/04 10:37:20;;;;;;;14.40;11.32;;;;;;;11.83;87.35;98039.25;10364479;28;20476;-52
2023/05/04 10:42:20;;;;;;;25.92;19.45;;;;;;;11.97;88.05;98065.22;10368500;28;20091;-53
2023/05/04 10:47:34;;;;;;;12.73;11.10;;;;;;;12.22;87.57;98073.84;10372658;28;20080;-51
2023/05/04 10:52:52;;;;;;;16.13;11.70;;;;;;;12.11;86.33;98014.06;10372809;28;20060;-52
2023/05/04 10:57:56;;;;;;;12.60;9.73;;;;;;;12.57;84.60;98071.16;10370897;28;20087;-52
2023/05/04 11:03:02;;;;;;;19.75;16.13;;;;;;;12.59;83.66;98064.22;10367797;28;20894;-52
2023/05/04 11:08:15;;;;;;;12.02;9.98;;;;;;;12.07;83.27;98017.53;10372612;28;20724;-51
2023/05/04 11:13:15;;;;;;;13.70;10.90;;;;;;;12.26;85.70;98084.25;10369163;28;20081;-50
2023/05/04 11:18:14;;;;;;;13.50;10.63;;;;;;;12.04;85.64;98082.56;10370442;28;20127;-52
2023/05/04 11:23:15;;;;;;;15.23;11.50;;;;;;;11.73;87.41;98090.38;10371441;28;20064;-52
2023/05/04 11:28:14;;;;;;;15.25;11.30;;;;;;;11.82;87.85;98087.78;10370551;28;20067;-52
2023/05/04 11:33:18;;;;;;;13.23;10.90;;;;;;;11.89;87.56;98092.13;10369712;28;20071;-52
2023/05/04 11:38:20;;;;;;;14.18;12.00;;;;;;;11.81;88.40;98096.47;10370245;28;20128;-51
2023/05/04 11:43:20;;;;;;;16.15;11.90;;;;;;;11.93;87.71;98089.53;10369835;28;20068;-52
2023/05/04 11:48:19;;;;;;;17.15;12.85;;;;;;;12.04;88.26;98090.34;10369038;28;20092;-53
2023/05/04 11:53:21;;;;;;;16.92;13.57;;;;;;;12.26;88.11;98099.88;10370049;28;20507;-53
2023/05/04 11:58:24;;;;;;;22.42;13.95;;;;;;;12.54;87.78;98092.03;10366916;28;20145;-52
2023/05/04 12:03:25;;;;;;;20.60;13.85;;;;;;;12.54;86.67;98055.56;10362130;28;20112;-53
2023/05/04 12:08:25;;;;;;;18.20;13.50;;;;;;;12.83;84.04;98085.81;10366864;28;20525;-51
2023/05/04 12:13:24;;;;;;;17.60;15.10;;;;;;;12.84;83.83;98090.19;10363452;28;20108;-52
2023/05/04 12:18:28;;;;;;;20.13;13.30;;;;;;;12.59;83.91;98076.38;10367111;28;20126;-53
2023/05/04 12:23:27;;;;;;;18.75;12.90;;;;;;;12.40;84.73;98079.06;10367870;28;20448;-52
2023/05/04 12:28:28;;;;;;;;;;;;;;;12.33;86.11;98084.28;10366899;28;20486;-52
2023/05/04 12:33:27;;;;;;;19.60;14.15;;;;;;;12.42;87.48;98094.66;10368576;28;19940;-52
2023/05/04 12:38:26;;;;;;;15.50;11.55;;;;;;;12.05;87.41;98081.72;10368360;28;20068;-52
2023/05/04 12:43:25;;;;;;;33.45;25.17;;;;;;;12.07;89.38;98072.16;10367157;28;20112;-51
2023/05/04 12:48:27;;;;;;;15.50;13.07;;;;;;;12.10;90.03;98074.75;10369231;28;20071;-52
2023/05/04 12:53:28;;;;;;;16.05;12.02;;;;;;;12.02;90.22;98073.91;10367634;28;20479;-52
2023/05/04 12:58:27;;;;;;;19.02;13.65;;;;;;;12.14;89.57;98065.22;10364312;28;20153;-52
2023/05/04 13:03:26;;;;;;;;;;;;;;;12.40;87.69;98059.97;10365219;28;20539;-52
2023/05/04 13:08:25;;;;;;;16.83;12.15;;;;;;;12.52;87.85;98049.50;10366215;28;19904;-52
2023/05/04 13:13:27;;;;;;;;;;;;;;;12.72;85.66;98052.91;10366682;28;20064;-53
2023/05/04 13:18:26;;;;;;;17.63;12.45;;;;;;;12.79;85.15;98017.28;10366975;28;20028;-52
2023/05/04 13:23:25;;;;;;;15.57;11.85;;;;;;;12.93;84.06;98009.38;10365464;28;20112;-52
2023/05/04 13:28:24;;;;;;;;;;;;;;;13.19;83.38;98034.38;10363462;28;20029;-51
2023/05/04 13:33:23;;;;;;;13.95;10.93;;;;;;;12.41;82.93;97922.00;10364562;28;19959;-52
2023/05/04 13:38:23;;;;;;;13.32;10.02;;;;;;;12.70;84.06;98041.63;10365602;28;20079;-53
2023/05/04 13:43:22;;;;;;;11.98;8.75;;;;;;;12.46;84.92;98040.00;10364633;28;20072;-52
2023/05/04 13:48:21;;;;;;;11.95;9.27;;;;;;;12.42;85.04;98040.00;10364812;28;20143;-52
2023/05/04 13:53:20;;;;;;;16.08;11.55;;;;;;;12.36;86.18;98050.44;10364031;28;20123;-52
2023/05/04 13:58:19;;;;;;;;;;;;;;;12.33;86.51;98046.09;10365317;28;20040;-52
2023/05/04 14:03:18;;;;;;;15.30;11.38;;;;;;;12.30;86.01;98048.72;10363424;28;19912;-52
2023/05/04 14:08:17;;;;;;;;;;;;;;;12.41;86.06;98044.34;10362892;28;20091;-52
2023/05/04 14:13:17;;;;;;;16.45;11.48;;;;;;;12.50;86.15;98054.72;10362244;28;20303;-50
2023/05/04 14:18:16;;;;;;;14.65;11.25;;;;;;;12.45;85.50;98045.19;10363210;28;20060;-52
2023/05/04 14:23:15;;;;;;;;;;;;;;;12.55;85.75;98059.03;10360275;28;20056;-52
2023/05/04 14:28:14;;;;;;;15.70;12.10;;;;;;;12.62;85.31;98059.00;10364962;28;20639;-52
2023/05/04 14:33:13;;;;;;;15.88;12.10;;;;;;;12.76;85.26;98060.69;10361927;28;20103;-52
2023/05/04 14:38:12;;;;;;;;;;;;;;;12.79;85.39;98051.13;10362414;28;20132;-50
2023/05/04 14:43:10;;;;;;;14.77;11.63;;;;;;;12.84;85.15;98048.50;10357263;28;19924;-52
2023/05/04 14:48:09;;;;;;;18.70;13.30;;;;;;;12.96;84.85;98058.84;10363047;28;20044;-53
2023/05/04 14:53:08;;;;;;;;;;;;;;;13.08;84.71;98044.88;10366372;28;20041;-52
2023/05/04 14:58:08;;;;;;;22.83;15.85;;;;;;;12.86;83.66;98011.16;10358729;28;19919;-52
2023/05/04 15:03:08;;;;;;;20.83;15.93;;;;;;;13.06;84.71;98050.09;10359753;28;20583;-52
2023/05/04 15:08:07;;;;;;;21.98;15.50;;;;;;;13.13;85.22;98043.09;10362693;28;20076;-51
2023/05/04 15:13:06;;;;;;;24.80;16.35;;;;;;;13.28;85.08;98050.84;10363225;28;20477;-52
2023/05/04 15:18:05;;;;;;;;;;;;;;;13.37;83.98;98044.66;10364141;28;20415;-52
2023/05/04 15:23:09;;;;;;;15.98;14.00;;;;;;;13.37;83.13;98036.84;10362235;28;19932;-52
2023/05/04 15:28:11;;;;;;;34.67;28.42;;;;;;;13.40;83.19;98041.16;10366996;28;20068;-52
2023/05/04 15:33:10;;;;;;;16.08;13.43;;;;;;;13.37;81.39;98021.19;10368336;28;20123;-52
2023/05/04 15:38:09;;;;;;;;;;;;;;;13.50;81.49;98050.66;10372404;28;20047;-51
2023/05/04 15:43:08;;;;;;;17.10;13.43;;;;;;;13.47;81.06;98040.25;10365658;28;19924;-51
2023/05/04 15:48:06;;;;;;;;;;;;;;;13.53;81.17;98041.06;10367522;28;20458;-52
2023/05/04 15:53:05;;;;;;;19.50;15.80;;;;;;;13.54;81.46;98040.22;10365784;28;19974;-52
2023/05/04 15:58:05;;;;;;;;;;;;;;;13.35;81.76;98010.81;10366796;28;20044;-52
2023/05/04 16:03:04;;;;;;;16.00;14.25;;;;;;;13.69;82.00;98040.97;10365938;28;19970;-52
2023/05/04 16:08:03;;;;;;;18.17;14.77;;;;;;;13.78;81.29;98046.97;10366736;28;20075;-52
2023/05/04 16:13:04;;;;;;;;;;;;;;;13.79;80.52;98042.59;10369661;28;20052;-52
2023/05/04 16:18:03;;;;;;;17.38;14.70;;;;;;;13.78;80.83;98048.72;10365903;28;19952;-53
2023/05/04 16:23:02;;;;;;;20.02;14.70;;;;;;;13.75;79.77;98052.22;10360304;28;20061;-52
2023/05/04 16:28:00;;;;;;;;;;;;;;;13.69;79.03;98051.41;10365308;28;20040;-53
2023/05/04 16:33:00;;;;;;;24.17;18.67;;;;;;;13.58;78.11;98054.09;10367417;28;19919;-52
2023/05/04 16:37:59;;;;;;;23.23;17.15;;;;;;;13.49;79.70;98051.53;10365458;28;20093;-50
2023/05/04 16:42:58;;;;;;;;;;;;;;;13.47;80.42;98050.66;10367901;28;20037;-52
2023/05/04 16:47:57;;;;;;;23.67;17.30;;;;;;;13.37;80.60;98055.09;10363745;28;20387;-51
2023/05/04 16:52:56;;;;;;;20.25;17.17;;;;;;;13.15;81.08;98065.66;10363938;28;20590;-52
2023/05/04 16:57:56;;;;;;;;;;;;;;;12.90;82.09;98064.94;10364328;28;20069;-52
2023/05/04 17:02:54;;;;;;;21.90;18.17;;;;;;;12.82;82.46;98071.09;10362797;28;20003;-52
2023/05/04 17:07:53;;;;;;;24.52;18.75;;;;;;;12.80;83.18;98080.63;10363556;28;20033;-52
2023/05/04 17:12:55;;;;;;;;;;;;;;;12.82;83.22;98076.28;10364832;28;20041;-52
2023/05/04 17:17:54;;;;;;;22.92;18.58;;;;;;;12.70;83.17;98054.63;10362319;28;19963;-51
2023/05/04 17:22:57;;;;;;;22.90;18.27;;;;;;;12.77;83.58;98085.88;10363848;28;20530;-51
2023/05/04 17:27:56;;;;;;;25.00;19.35;;;;;;;12.79;83.88;98089.31;10361520;28;20160;-52
2023/05/04 17:32:56;;;;;;;;;;;;;;;12.75;84.10;98090.22;10355667;28;20035;-52
2023/05/04 17:37:55;;;;;;;41.13;30.13;;;;;;;12.70;84.17;98087.63;10362182;28;19959;-50
2023/05/04 17:42:54;;;;;;;;;;;;;;;12.60;84.51;98104.13;10361978;28;20554;-52
2023/05/04 17:47:53;;;;;;;34.22;26.27;;;;;;;12.51;85.34;98107.66;10361490;28;19960;-51
2023/05/04 17:52:52;;;;;;;;;;;;;;;12.50;86.04;98113.72;10360901;28;20041;-52
2023/05/04 17:57:53;;;;;;;27.50;20.23;;;;;;;12.38;85.56;98121.56;10355105;28;20023;-54
2023/05/04 18:02:52;;;;;;;24.08;17.55;;;;;;;12.15;86.69;98125.03;10361215;28;20125;-51
2023/05/04 18:07:51;;;;;;;26.88;20.70;;;;;;;11.99;87.64;98125.91;10360996;28;20362;-51
2023/05/04 18:12:49;;;;;;;;;;;;;;;11.85;88.70;98126.81;10356942;28;20032;-52
2023/05/04 18:17:49;;;;;;;34.95;24.00;;;;;;;11.91;88.81;98127.66;10360673;28;19970;-53
2023/05/04 18:22:48;;;;;;;28.52;22.55;;;;;;;11.94;89.40;98135.47;10359885;28;20437;-52
2023/05/04 18:27:47;;;;;;;28.52;20.58;;;;;;;11.98;88.89;98137.19;10358048;28;20036;-52
2023/05/04 18:32:46;;;;;;;29.30;21.02;;;;;;;11.91;89.45;98125.06;10359502;28;20040;-52
2023/05/04 18:37:45;;;;;;;;;;;;;;;12.05;89.63;98142.38;10355575;28;20045;-52
2023/05/04 18:42:43;;;;;;;42.45;26.30;;;;;;;12.03;89.56;98132.84;10357368;28;19917;-51
2023/05/04 18:47:42;;;;;;;;;;;;;;;12.13;90.18;98151.91;10359785;28;20048;-51
2023/05/04 18:52:41;;;;;;;36.38;27.45;;;;;;;12.12;90.38;98160.59;10358166;28;20008;-52
2023/05/04 18:57:40;;;;;;;36.65;26.60;;;;;;;12.13;90.42;98163.19;10356583;28;20120;-51
2023/05/04 19:02:39;;;;;;;35.35;25.77;;;;;;;12.14;90.67;98164.94;10363405;28;20041;-50
2023/05/04 19:07:38;;;;;;;;;;;;;;;12.16;89.91;98164.91;10367452;28;20048;-51
2023/05/04 19:12:37;;;;;;;32.75;24.35;;;;;;;12.08;90.07;98170.13;10366929;28;19921;-50
2023/05/04 19:17:36;;;;;;;33.00;24.38;;;;;;;12.06;90.17;98166.66;10361627;28;20037;-51
2023/05/04 19:22:35;;;;;;;35.83;26.30;;;;;;;12.03;90.37;98171.88;10365172;28;20053;-50
2023/05/04 19:27:34;;;;;;;;;;;;;;;12.08;90.12;98172.72;10365806;28;20127;-52
2023/05/04 19:32:33;;;;;;;37.53;26.10;;;;;;;12.04;90.24;98173.59;10367331;28;20017;-54
2023/05/04 19:37:32;;;;;;;;;;;;;;;12.04;90.70;98179.69;10366339;28;20075;-51
2023/05/04 19:42:30;;;;;;;29.75;22.27;;;;;;;12.08;90.32;98190.94;10365655;28;20015;-51
2023/05/04 19:47:29;;;;;;;30.73;22.13;;;;;;;12.09;90.34;98185.75;10368194;28;20039;-51
2023/05/04 19:52:28;;;;;;;29.85;21.10;;;;;;;12.08;90.23;98178.78;10371463;28;20033;-51
2023/05/04 19:57:27;;;;;;;;;;;;;;;12.12;90.39;98171.00;10370086;28;20517;-51
2023/05/04 20:02:29;;;;;;;29.35;20.33;;;;;;;12.05;90.09;98151.94;10368851;28;20579;-51
2023/05/04 20:07:28;;;;;;;26.20;19.15;;;;;;;12.20;90.17;98174.47;10370476;28;20076;-53
2023/05/04 20:12:28;;;;;;;;;;;;;;;12.15;89.91;98174.47;10368542;28;20035;-53
2023/05/04 20:17:27;;;;;;;37.15;26.42;;;;;;;12.03;89.65;98166.66;10369442;28;20359;-53
2023/05/04 20:22:26;;;;;;;26.50;19.55;;;;;;;12.03;89.70;98177.94;10368121;28;20076;-52
2023/05/04 20:27:25;;;;;;;29.92;21.13;;;;;;;12.01;89.66;98166.66;10369926;28;20095;-52
2023/05/04 20:32:24;;;;;;;81.40;62.13;;;;;;;11.99;89.83;98164.94;10369467;28;20114;-53
2023/05/04 20:37:23;;;;;;;;;;;;;;;11.96;89.54;98175.34;10366705;28;20608;-51
2023/05/04 20:42:22;;;;;;;37.88;28.70;;;;;;;11.94;89.79;98172.72;10369844;28;19939;-50
2023/05/04 20:47:21;;;;;;;25.40;18.55;;;;;;;11.98;89.76;98184.03;10364769;28;20408;-51
2023/05/04 20:52:20;;;;;;;34.50;28.17;;;;;;;11.99;89.91;98180.53;10364146;28;20418;-53
2023/05/04 20:57:19;;;;;;;;;;;;;;;12.04;90.07;98176.19;10364284;28;20073;-53
2023/05/04 21:02:18;;;;;;;30.83;19.80;;;;;;;12.07;90.42;98184.03;10363498;28;19927;-53
2023/05/04 21:07:16;;;;;;;;;;;;;;;12.13;90.15;98175.34;10364663;28;20478;-49
2023/05/04 21:12:16;;;;;;;26.20;18.52;;;;;;;12.13;89.84;98183.13;10363539;28;20558;-52
2023/05/04 21:17:15;;;;;;;35.95;26.10;;;;;;;11.99;89.84;98171.00;10362540;28;20089;-53
2023/05/04 21:22:16;;;;;;;;;;;;;;;12.04;90.08;98181.41;10361611;28;20094;-51
2023/05/04 21:27:15;;;;;;;33.75;24.15;;;;;;;12.05;90.08;98189.22;10362934;28;20007;-53
2023/05/04 21:32:14;;;;;;;34.38;26.17;;;;;;;12.06;90.23;98185.75;10362317;28;20089;-52
2023/05/04 21:37:13;;;;;;;;;;;;;;;12.09;90.07;98190.09;10363228;28;20149;-52
2023/05/04 21:42:12;;;;;;;40.05;29.77;;;;;;;12.10;90.43;98205.69;10362760;28;19924;-52
2023/05/04 21:47:10;;;;;;;;;;;;;;;12.07;90.74;98205.69;10362265;28;20116;-52
2023/05/04 21:52:09;;;;;;;38.05;26.85;;;;;;;12.04;90.49;98204.81;10360338;28;20014;-53
2023/05/04 21:57:08;;;;;;;;;;;;;;;12.03;90.04;98203.09;10359536;28;20103;-51
2023/05/04 22:02:08;;;;;;;35.10;29.33;;;;;;;11.99;90.06;98198.75;10359600;28;19917;-50
2023/05/04 22:07:07;;;;;;;25.45;18.45;;;;;;;11.95;89.91;98192.69;10359975;28;20123;-49
2023/05/04 22:12:06;;;;;;;28.27;19.77;;;;;;;12.00;89.80;98190.09;10355354;28;20041;-49
2023/05/04 22:17:06;;;;;;;;;;;;;;;12.01;89.95;98189.22;10357732;28;20132;-48
2023/05/04 22:22:05;;;;;;;29.30;20.40;;;;;;;11.97;89.56;98171.88;10352632;28;20823;-50
2023/05/04 22:27:04;;;;;;;;;;;;;;;12.00;89.94;98167.53;10356114;28;20064;-49
2023/05/04 22:32:03;;;;;;;32.88;22.00;;;;;;;12.06;89.51;98164.06;10356400;28;19917;-52
2023/05/04 22:37:02;;;;;;;;;;;;;;;12.06;89.76;98166.66;10356443;28;20060;-53
2023/05/04 22:42:01;;;;;;;31.60;20.77;;;;;;;11.97;89.79;98143.25;10358941;28;19924;-53
2023/05/04 22:47:00;;;;;;;31.27;21.63;;;;;;;12.07;89.92;98164.06;10321979;28;1112253;-52
2023/05/04 22:51:59;;;;;;;30.88;21.00;;;;;;;12.09;89.22;98157.13;10363830;28;20037;-53
2023/05/04 22:56:58;;;;;;;30.55;21.00;;;;;;;12.01;89.31;98147.59;10363462;28;20506;-53
2023/05/04 23:01:57;;;;;;;33.38;23.00;;;;;;;12.03;89.47;98145.88;10362459;28;20028;-51
2023/05/04 23:06:56;;;;;;;;;;;;;;;12.03;89.18;98148.47;10363985;28;20072;-50
2023/05/04 23:11:55;;;;;;;29.53;21.47;;;;;;;12.03;89.68;98146.72;10362911;28;19943;-50
2023/05/04 23:16:54;;;;;;;29.92;20.98;;;;;;;12.06;89.59;98140.66;10362607;28;20076;-50